Time,TemperatureF,DewpointF,PressureIn,WindDirection,WindDirectionDegrees,WindSpeedMPH,WindSpeedGustMPH,Humidity,HourlyPrecipIn,Conditions,Clouds,dailyrainin,SoftwareType,DateUTC
2013-04-25 00:03:00,52.8,34.8,30.05,NE,45,1.5,3.0,50,0.00,,,0.00,NetBSD+Arduino,2013-04-25 07:03:00,
2013-04-25 00:08:00,52.6,34.0,30.05,NE,45,0.0,3.0,49,0.00,,,0.00,NetBSD+Arduino,2013-04-25 07:08:00,
2013-04-25 00:13:00,52.3,34.1,30.05,NE,45,1.5,3.0,49,0.00,,,0.00,NetBSD+Arduino,2013-04-25 07:13:00,
2013-04-25 00:18:00,51.9,34.2,30.05,NE,45,1.5,3.0,50,0.00,,,0.00,NetBSD+Arduino,2013-04-25 07:18:00,
2013-04-25 00:23:00,51.8,34.3,30.05,East,90,0.0,3.0,51,0.00,,,0.00,NetBSD+Arduino,2013-04-25 07:23:00,
2013-04-25 00:28:00,51.8,34.1,30.05,East,90,0.0,3.0,50,0.00,,,0.00,NetBSD+Arduino,2013-04-25 07:28:00,
2013-04-25 00:33:00,51.7,34.0,30.05,NE,45,1.5,3.0,50,0.00,,,0.00,NetBSD+Arduino,2013-04-25 07:33:00,
2013-04-25 00:38:00,51.4,33.9,30.05,NE,45,0.0,1.5,51,0.00,,,0.00,NetBSD+Arduino,2013-04-25 07:38:00,
2013-04-25 00:43:00,51.5,35.2,30.05,NE,45,0.0,3.0,53,0.00,,,0.00,NetBSD+Arduino,2013-04-25 07:43:00,
2013-04-25 00:48:00,51.8,34.1,30.05,North,0,0.0,3.0,50,0.00,,,0.00,NetBSD+Arduino,2013-04-25 07:48:00,
2013-04-25 00:53:00,51.6,35.1,30.05,North,0,0.0,1.5,53,0.00,,,0.00,NetBSD+Arduino,2013-04-25 07:53:00,
2013-04-25 00:58:00,51.7,34.7,30.05,East,90,4.5,4.5,52,0.00,,,0.00,NetBSD+Arduino,2013-04-25 07:58:00,
2013-04-25 01:03:00,51.7,36.2,30.05,NW,315,0.0,3.0,55,0.00,,,0.00,NetBSD+Arduino,2013-04-25 08:03:00,
2013-04-25 01:08:00,51.4,35.1,30.05,East,90,1.5,1.5,53,0.00,,,0.00,NetBSD+Arduino,2013-04-25 08:08:00,
2013-04-25 01:13:00,51.4,36.0,30.05,North,0,1.5,3.0,55,0.00,,,0.00,NetBSD+Arduino,2013-04-25 08:13:00,
2013-04-25 01:18:00,51.4,36.2,30.05,NW,315,0.0,3.0,55,0.00,,,0.00,NetBSD+Arduino,2013-04-25 08:18:00,
2013-04-25 01:23:00,51.0,35.8,30.05,NE,45,1.5,3.0,55,0.00,,,0.00,NetBSD+Arduino,2013-04-25 08:23:00,
2013-04-25 01:28:00,51.0,35.1,30.05,North,0,1.5,3.0,54,0.00,,,0.00,NetBSD+Arduino,2013-04-25 08:28:00,
2013-04-25 01:33:00,50.8,34.9,30.05,North,0,1.5,3.0,54,0.00,,,0.00,NetBSD+Arduino,2013-04-25 08:33:00,
2013-04-25 01:38:00,50.5,34.7,30.05,NE,45,3.0,3.0,54,0.00,,,0.00,NetBSD+Arduino,2013-04-25 08:38:00,
2013-04-25 01:43:00,50.8,34.5,30.05,North,0,1.5,4.5,53,0.00,,,0.00,NetBSD+Arduino,2013-04-25 08:43:00,
2013-04-25 01:48:00,51.1,34.6,30.05,East,90,0.0,4.5,53,0.00,,,0.00,NetBSD+Arduino,2013-04-25 08:48:00,
2013-04-25 01:53:00,51.0,34.9,30.04,NE,45,1.5,3.0,53,0.00,,,0.00,NetBSD+Arduino,2013-04-25 08:53:00,
2013-04-25 01:58:00,50.8,35.1,30.05,North,0,3.0,3.0,54,0.00,,,0.00,NetBSD+Arduino,2013-04-25 08:58:00,
2013-04-25 02:03:00,50.4,35.0,30.04,North,0,1.5,4.5,55,0.00,,,0.00,NetBSD+Arduino,2013-04-25 09:03:00,
2013-04-25 02:08:00,50.2,35.5,30.05,North,0,3.0,3.0,56,0.00,,,0.00,NetBSD+Arduino,2013-04-25 09:08:00,
2013-04-25 02:13:00,50.1,36.0,30.05,North,0,1.5,3.0,58,0.00,,,0.00,NetBSD+Arduino,2013-04-25 09:13:00,
2013-04-25 02:18:00,49.8,35.5,30.04,NE,45,3.0,4.5,57,0.00,,,0.00,NetBSD+Arduino,2013-04-25 09:18:00,
2013-04-25 02:23:00,49.7,35.6,30.05,North,0,0.0,4.5,58,0.00,,,0.00,NetBSD+Arduino,2013-04-25 09:23:00,
2013-04-25 02:28:00,49.5,36.2,30.04,NE,45,1.5,3.0,60,0.00,,,0.00,NetBSD+Arduino,2013-04-25 09:28:00,
2013-04-25 02:33:00,49.2,36.5,30.05,East,90,0.0,4.5,61,0.00,,,0.00,NetBSD+Arduino,2013-04-25 09:33:00,
2013-04-25 02:38:00,49.1,36.0,30.04,NE,45,0.0,3.0,60,0.00,,,0.00,NetBSD+Arduino,2013-04-25 09:38:00,
2013-04-25 02:43:00,48.8,36.1,30.04,East,90,0.0,3.0,61,0.00,,,0.00,NetBSD+Arduino,2013-04-25 09:43:00,
2013-04-25 02:48:00,48.8,36.7,30.05,North,0,1.5,1.5,62,0.00,,,0.00,NetBSD+Arduino,2013-04-25 09:48:00,
2013-04-25 02:53:00,48.7,36.4,30.04,NE,45,1.5,3.0,62,0.00,,,0.00,NetBSD+Arduino,2013-04-25 09:53:00,
2013-04-25 02:58:00,48.7,36.4,30.04,NE,45,3.0,6.0,62,0.00,,,0.00,NetBSD+Arduino,2013-04-25 09:58:00,
2013-04-25 03:03:00,48.7,37.1,30.04,NE,45,1.5,4.5,64,0.00,,,0.00,NetBSD+Arduino,2013-04-25 10:03:00,
2013-04-25 03:08:00,48.6,36.8,30.05,North,0,0.0,4.5,63,0.00,,,0.00,NetBSD+Arduino,2013-04-25 10:08:00,
2013-04-25 03:13:00,48.3,36.7,30.03,NE,45,3.0,3.0,64,0.00,,,0.00,NetBSD+Arduino,2013-04-25 10:13:00,
2013-04-25 03:18:00,48.4,37.0,30.04,NE,45,1.5,4.5,64,0.00,,,0.00,NetBSD+Arduino,2013-04-25 10:18:00,
2013-04-25 03:24:00,48.4,37.2,30.03,NW,315,1.5,3.0,65,0.00,,,0.00,NetBSD+Arduino,2013-04-25 10:24:00,
2013-04-25 03:29:00,48.2,37.1,30.04,NE,45,1.5,4.5,65,0.00,,,0.00,NetBSD+Arduino,2013-04-25 10:29:00,
2013-04-25 03:34:00,48.0,36.8,30.03,NW,315,1.5,3.0,65,0.00,,,0.00,NetBSD+Arduino,2013-04-25 10:34:00,
2013-04-25 03:39:00,48.0,36.7,30.03,NE,45,0.0,3.0,65,0.00,,,0.00,NetBSD+Arduino,2013-04-25 10:39:00,
2013-04-25 03:44:00,47.9,36.8,30.03,North,0,0.0,1.5,65,0.00,,,0.00,NetBSD+Arduino,2013-04-25 10:44:00,
2013-04-25 03:49:00,47.7,38.1,30.03,North,0,1.5,3.0,69,0.00,,,0.00,NetBSD+Arduino,2013-04-25 10:49:00,
2013-04-25 03:54:00,47.5,36.8,30.03,NE,45,0.0,3.0,66,0.00,,,0.00,NetBSD+Arduino,2013-04-25 10:54:00,
2013-04-25 03:59:00,47.3,36.8,30.03,North,0,0.0,1.5,66,0.00,,,0.00,NetBSD+Arduino,2013-04-25 10:59:00,
2013-04-25 04:04:00,47.1,36.9,30.03,North,0,0.0,1.5,67,0.00,,,0.00,NetBSD+Arduino,2013-04-25 11:04:00,
2013-04-25 04:09:00,46.9,37.1,30.03,North,0,0.0,1.5,68,0.00,,,0.00,NetBSD+Arduino,2013-04-25 11:09:00,
2013-04-25 04:14:00,46.9,37.5,30.03,North,0,0.0,1.5,69,0.00,,,0.00,NetBSD+Arduino,2013-04-25 11:14:00,
2013-04-25 04:19:00,46.7,37.0,30.03,NE,45,0.0,3.0,68,0.00,,,0.00,NetBSD+Arduino,2013-04-25 11:19:00,
2013-04-25 04:24:00,46.5,37.2,30.03,North,0,0.0,0.0,69,0.00,,,0.00,NetBSD+Arduino,2013-04-25 11:24:00,
2013-04-25 04:29:00,46.7,37.4,30.03,West,270,0.0,0.0,69,0.00,,,0.00,NetBSD+Arduino,2013-04-25 11:29:00,
2013-04-25 04:34:00,46.7,37.2,30.03,NW,315,0.0,0.0,69,0.00,,,0.00,NetBSD+Arduino,2013-04-25 11:34:00,
2013-04-25 04:39:00,46.5,37.5,30.03,West,270,0.0,0.0,70,0.00,,,0.00,NetBSD+Arduino,2013-04-25 11:39:00,
2013-04-25 04:44:00,46.4,37.4,30.03,North,0,0.0,0.0,70,0.00,,,0.00,NetBSD+Arduino,2013-04-25 11:44:00,
2013-04-25 04:49:00,46.2,37.1,30.03,North,0,0.0,3.0,70,0.00,,,0.00,NetBSD+Arduino,2013-04-25 11:49:00,
2013-04-25 04:54:00,45.9,37.1,30.03,North,0,0.0,1.5,71,0.00,,,0.00,NetBSD+Arduino,2013-04-25 11:54:00,
2013-04-25 04:59:00,45.8,37.3,30.03,NE,45,0.0,1.5,72,0.00,,,0.00,NetBSD+Arduino,2013-04-25 11:59:00,
2013-04-25 05:04:00,46.0,37.7,30.03,NE,45,0.0,1.5,72,0.00,,,0.00,NetBSD+Arduino,2013-04-25 12:04:00,
2013-04-25 05:09:00,46.0,37.7,30.03,West,270,0.0,0.0,72,0.00,,,0.00,NetBSD+Arduino,2013-04-25 12:09:00,
2013-04-25 05:14:00,45.9,37.6,30.03,North,0,0.0,1.5,72,0.00,,,0.00,NetBSD+Arduino,2013-04-25 12:14:00,
2013-04-25 05:19:00,46.0,37.7,30.03,NW,315,1.5,3.0,72,0.00,,,0.00,NetBSD+Arduino,2013-04-25 12:19:00,
2013-04-25 05:24:00,45.9,37.5,30.03,North,0,0.0,3.0,72,0.00,,,0.00,NetBSD+Arduino,2013-04-25 12:24:00,
2013-04-25 05:29:00,46.0,37.3,30.03,North,0,0.0,3.0,71,0.00,,,0.00,NetBSD+Arduino,2013-04-25 12:29:00,
2013-04-25 05:34:00,45.9,37.6,30.03,NE,45,3.0,4.5,72,0.00,,,0.00,NetBSD+Arduino,2013-04-25 12:34:00,
2013-04-25 05:39:00,46.1,37.6,30.03,SW,225,0.0,4.5,72,0.00,,,0.00,NetBSD+Arduino,2013-04-25 12:39:00,
2013-04-25 05:44:00,45.9,37.9,30.03,North,0,1.5,4.5,73,0.00,,,0.00,NetBSD+Arduino,2013-04-25 12:44:00,
2013-04-25 05:49:00,45.7,37.5,30.03,North,0,1.5,3.0,72,0.00,,,0.00,NetBSD+Arduino,2013-04-25 12:49:00,
2013-04-25 05:54:00,45.4,37.7,30.03,NE,45,0.0,3.0,74,0.00,,,0.00,NetBSD+Arduino,2013-04-25 12:54:00,
2013-04-25 05:59:00,45.4,37.6,30.03,NE,45,1.5,3.0,74,0.00,,,0.00,NetBSD+Arduino,2013-04-25 12:59:00,
2013-04-25 06:04:00,45.1,37.5,30.03,North,0,1.5,3.0,74,0.00,,,0.00,NetBSD+Arduino,2013-04-25 13:04:00,
2013-04-25 06:09:00,45.1,37.8,30.03,West,270,1.5,3.0,75,0.00,,,0.00,NetBSD+Arduino,2013-04-25 13:09:00,
2013-04-25 06:14:00,44.9,37.9,30.03,NW,315,0.0,1.5,76,0.00,,,0.00,NetBSD+Arduino,2013-04-25 13:14:00,
2013-04-25 06:19:00,44.8,37.8,30.03,NW,315,0.0,0.0,76,0.00,,,0.00,NetBSD+Arduino,2013-04-25 13:19:00,
2013-04-25 06:24:00,44.6,37.9,30.03,North,0,1.5,3.0,77,0.00,,,0.00,NetBSD+Arduino,2013-04-25 13:24:00,
2013-04-25 06:29:00,44.5,38.3,30.03,NE,45,0.0,1.5,78,0.00,,,0.00,NetBSD+Arduino,2013-04-25 13:29:00,
2013-04-25 06:34:00,44.6,37.6,30.03,NE,45,1.5,3.0,76,0.00,,,0.00,NetBSD+Arduino,2013-04-25 13:34:00,
2013-04-25 06:39:00,45.1,37.6,30.03,NE,45,0.0,3.0,75,0.00,,,0.00,NetBSD+Arduino,2013-04-25 13:39:00,
2013-04-25 06:44:00,45.4,37.9,30.04,East,90,1.5,3.0,75,0.00,,,0.00,NetBSD+Arduino,2013-04-25 13:44:00,
2013-04-25 06:49:00,45.6,38.3,30.04,SE,135,0.0,3.0,75,0.00,,,0.00,NetBSD+Arduino,2013-04-25 13:49:00,
2013-04-25 06:54:00,45.8,38.5,30.03,North,0,0.0,0.0,75,0.00,,,0.00,NetBSD+Arduino,2013-04-25 13:54:00,
2013-04-25 06:59:00,46.1,38.0,30.04,NE,45,0.0,1.5,73,0.00,,,0.00,NetBSD+Arduino,2013-04-25 13:59:00,
2013-04-25 07:04:00,46.5,38.0,30.04,NE,45,1.5,3.0,72,0.00,,,0.00,NetBSD+Arduino,2013-04-25 14:04:00,
2013-04-25 07:09:00,47.0,38.0,30.05,East,90,1.5,3.0,70,0.00,,,0.00,NetBSD+Arduino,2013-04-25 14:09:00,
2013-04-25 07:14:00,47.5,38.7,30.05,South,180,1.5,3.0,71,0.00,,,0.00,NetBSD+Arduino,2013-04-25 14:14:00,
2013-04-25 07:19:00,48.1,38.8,30.05,East,90,1.5,3.0,70,0.00,,,0.00,NetBSD+Arduino,2013-04-25 14:19:00,
2013-04-25 07:24:00,48.5,38.7,30.05,East,90,0.0,3.0,68,0.00,,,0.00,NetBSD+Arduino,2013-04-25 14:24:00,
2013-04-25 07:29:00,48.5,38.5,30.05,North,0,1.5,3.0,68,0.00,,,0.00,NetBSD+Arduino,2013-04-25 14:29:00,
2013-04-25 07:34:00,48.7,38.7,30.05,East,90,3.0,4.5,68,0.00,,,0.00,NetBSD+Arduino,2013-04-25 14:34:00,
2013-04-25 07:39:00,48.8,38.8,30.05,East,90,3.0,4.5,68,0.00,,,0.00,NetBSD+Arduino,2013-04-25 14:39:00,
2013-04-25 07:44:00,49.0,39.4,30.05,East,90,3.0,3.0,69,0.00,,,0.00,NetBSD+Arduino,2013-04-25 14:44:00,
2013-04-25 07:49:00,49.2,38.9,30.05,South,180,0.0,3.0,67,0.00,,,0.00,NetBSD+Arduino,2013-04-25 14:49:00,
2013-04-25 07:54:00,49.5,39.2,30.05,NE,45,0.0,4.5,67,0.00,,,0.00,NetBSD+Arduino,2013-04-25 14:54:00,
2013-04-25 07:59:00,49.8,39.1,30.05,SE,135,1.5,4.5,66,0.00,,,0.00,NetBSD+Arduino,2013-04-25 14:59:00,
2013-04-25 08:04:00,50.0,39.3,30.05,NE,45,1.5,3.0,66,0.00,,,0.00,NetBSD+Arduino,2013-04-25 15:04:00,
2013-04-25 08:09:00,50.2,39.9,30.05,South,180,0.0,1.5,67,0.00,,,0.00,NetBSD+Arduino,2013-04-25 15:09:00,
2013-04-25 08:14:00,50.8,39.9,30.06,South,180,1.5,3.0,66,0.00,,,0.00,NetBSD+Arduino,2013-04-25 15:14:00,
2013-04-25 08:19:00,51.3,40.4,30.06,North,0,1.5,3.0,66,0.00,,,0.00,NetBSD+Arduino,2013-04-25 15:19:00,
2013-04-25 08:24:00,51.7,40.5,30.06,North,0,1.5,4.5,65,0.00,,,0.00,NetBSD+Arduino,2013-04-25 15:24:00,
2013-04-25 08:29:00,52.0,39.8,30.06,East,90,1.5,3.0,63,0.00,,,0.00,NetBSD+Arduino,2013-04-25 15:29:00,
2013-04-25 08:34:00,52.2,40.6,30.06,SW,225,0.0,4.5,64,0.00,,,0.00,NetBSD+Arduino,2013-04-25 15:34:00,
2013-04-25 08:39:00,52.7,40.9,30.06,SE,135,3.0,4.5,64,0.00,,,0.00,NetBSD+Arduino,2013-04-25 15:39:00,
2013-04-25 08:44:00,53.8,41.1,30.06,North,0,0.0,4.5,61,0.00,,,0.00,NetBSD+Arduino,2013-04-25 15:44:00,
2013-04-25 08:49:00,54.9,41.2,30.06,NE,45,1.5,3.0,60,0.00,,,0.00,NetBSD+Arduino,2013-04-25 15:49:00,
2013-04-25 08:54:00,55.4,42.0,30.06,South,180,3.0,6.0,60,0.00,,,0.00,NetBSD+Arduino,2013-04-25 15:54:00,
2013-04-25 08:59:00,56.0,41.8,30.06,NE,45,3.0,4.5,58,0.00,,,0.00,NetBSD+Arduino,2013-04-25 15:59:00,
2013-04-25 09:04:00,55.9,41.9,30.06,East,90,1.5,4.5,59,0.00,,,0.00,NetBSD+Arduino,2013-04-25 16:04:00,
2013-04-25 09:09:00,57.6,42.7,30.06,NE,45,1.5,4.5,57,0.00,,,0.00,NetBSD+Arduino,2013-04-25 16:09:00,
2013-04-25 09:14:00,58.5,42.9,30.06,NE,45,1.5,4.5,56,0.00,,,0.00,NetBSD+Arduino,2013-04-25 16:14:00,
2013-04-25 09:19:00,59.2,44.2,30.06,NE,45,1.5,4.5,57,0.00,,,0.00,NetBSD+Arduino,2013-04-25 16:19:00,
2013-04-25 09:25:00,58.6,42.5,30.06,West,270,0.0,6.0,55,0.00,,,0.00,NetBSD+Arduino,2013-04-25 16:25:00,
2013-04-25 09:30:00,59.0,42.7,30.06,East,90,1.5,6.0,54,0.00,,,0.00,NetBSD+Arduino,2013-04-25 16:30:00,
2013-04-25 09:35:00,59.0,42.9,30.06,NE,45,3.0,6.0,55,0.00,,,0.00,NetBSD+Arduino,2013-04-25 16:35:00,
2013-04-25 09:40:00,60.6,42.5,30.06,East,90,1.5,4.5,51,0.00,,,0.00,NetBSD+Arduino,2013-04-25 16:40:00,
2013-04-25 09:45:00,60.4,42.6,30.06,SE,135,3.0,4.5,51,0.00,,,0.00,NetBSD+Arduino,2013-04-25 16:45:00,
2013-04-25 09:50:00,60.4,42.1,30.07,West,270,0.0,4.5,50,0.00,,,0.00,NetBSD+Arduino,2013-04-25 16:50:00,
2013-04-25 09:55:00,61.0,41.9,30.07,SW,225,0.0,4.5,49,0.00,,,0.00,NetBSD+Arduino,2013-04-25 16:55:00,
2013-04-25 10:00:00,61.9,42.2,30.07,SW,225,1.5,4.5,48,0.00,,,0.00,NetBSD+Arduino,2013-04-25 17:00:00,
2013-04-25 10:05:00,61.4,42.3,30.07,South,180,1.5,6.0,49,0.00,,,0.00,NetBSD+Arduino,2013-04-25 17:05:00,
2013-04-25 10:10:00,61.5,41.6,30.07,East,90,4.5,6.0,47,0.00,,,0.00,NetBSD+Arduino,2013-04-25 17:10:00,
2013-04-25 10:15:00,62.8,42.6,30.07,South,180,3.0,4.5,47,0.00,,,0.00,NetBSD+Arduino,2013-04-25 17:15:00,
2013-04-25 10:20:00,63.2,41.2,30.07,SE,135,1.5,4.5,44,0.00,,,0.00,NetBSD+Arduino,2013-04-25 17:20:00,
2013-04-25 10:25:00,64.6,41.9,30.07,North,0,1.5,3.0,43,0.00,,,0.00,NetBSD+Arduino,2013-04-25 17:25:00,
2013-04-25 10:30:00,64.1,41.4,30.07,West,270,0.0,4.5,43,0.00,,,0.00,NetBSD+Arduino,2013-04-25 17:30:00,
2013-04-25 10:35:00,64.8,40.2,30.07,SE,135,0.0,4.5,40,0.00,,,0.00,NetBSD+Arduino,2013-04-25 17:35:00,
2013-04-25 10:40:00,66.1,43.3,30.07,SW,225,1.5,3.0,43,0.00,,,0.00,NetBSD+Arduino,2013-04-25 17:40:00,
2013-04-25 10:45:00,66.2,40.2,30.07,NW,315,1.5,4.5,38,0.00,,,0.00,NetBSD+Arduino,2013-04-25 17:45:00,
2013-04-25 10:50:00,66.8,43.7,30.08,South,180,0.0,4.5,43,0.00,,,0.00,NetBSD+Arduino,2013-04-25 17:50:00,
2013-04-25 10:55:00,65.4,40.8,30.08,NW,315,1.5,6.0,40,0.00,,,0.00,NetBSD+Arduino,2013-04-25 17:55:00,
2013-04-25 11:00:00,66.7,43.0,30.08,North,0,1.5,4.5,42,0.00,,,0.00,NetBSD+Arduino,2013-04-25 18:00:00,
2013-04-25 11:05:00,67.4,41.3,30.08,NE,45,1.5,4.5,38,0.00,,,0.00,NetBSD+Arduino,2013-04-25 18:05:00,
2013-04-25 11:10:00,67.0,41.2,30.07,NW,315,0.0,4.5,39,0.00,,,0.00,NetBSD+Arduino,2013-04-25 18:10:00,
2013-04-25 11:15:00,67.0,39.8,30.08,South,180,0.0,3.0,37,0.00,,,0.00,NetBSD+Arduino,2013-04-25 18:15:00,
2013-04-25 11:20:00,67.8,42.4,30.08,NE,45,1.5,4.5,39,0.00,,,0.00,NetBSD+Arduino,2013-04-25 18:20:00,
2013-04-25 11:26:00,67.0,40.9,30.08,South,180,3.0,6.0,38,0.00,,,0.00,NetBSD+Arduino,2013-04-25 18:26:00,
2013-04-25 11:31:00,67.8,41.7,30.07,South,180,3.0,6.0,38,0.00,,,0.00,NetBSD+Arduino,2013-04-25 18:31:00,
2013-04-25 11:36:00,68.2,42.1,30.07,South,180,3.0,4.5,38,0.00,,,0.00,NetBSD+Arduino,2013-04-25 18:36:00,
2013-04-25 11:41:00,69.4,41.0,30.07,South,180,1.5,4.5,35,0.00,,,0.00,NetBSD+Arduino,2013-04-25 18:41:00,
2013-04-25 11:46:00,68.7,42.8,30.07,SW,225,1.5,6.0,39,0.00,,,0.00,NetBSD+Arduino,2013-04-25 18:46:00,
2013-04-25 11:51:00,68.5,42.7,30.08,West,270,0.0,3.0,39,0.00,,,0.00,NetBSD+Arduino,2013-04-25 18:51:00,
2013-04-25 11:56:00,69.3,43.4,30.08,NE,45,0.0,6.0,39,0.00,,,0.00,NetBSD+Arduino,2013-04-25 18:56:00,
2013-04-25 12:01:00,69.9,44.0,30.08,West,270,3.0,3.0,39,0.00,,,0.00,NetBSD+Arduino,2013-04-25 19:01:00,
2013-04-25 12:06:00,68.9,41.6,30.07,NW,315,4.5,6.0,37,0.00,,,0.00,NetBSD+Arduino,2013-04-25 19:06:00,
2013-04-25 12:11:00,69.1,42.2,30.07,West,270,1.5,6.0,37,0.00,,,0.00,NetBSD+Arduino,2013-04-25 19:11:00,
2013-04-25 12:16:00,70.3,43.6,30.07,West,270,1.5,7.5,38,0.00,,,0.00,NetBSD+Arduino,2013-04-25 19:16:00,
2013-04-25 12:21:00,70.6,42.9,30.07,SW,225,3.0,4.5,36,0.00,,,0.00,NetBSD+Arduino,2013-04-25 19:21:00,
2013-04-25 12:26:00,68.8,41.9,30.07,SW,225,1.5,6.0,37,0.00,,,0.00,NetBSD+Arduino,2013-04-25 19:26:00,
2013-04-25 12:31:00,69.6,43.3,30.07,South,180,3.0,9.0,38,0.00,,,0.00,NetBSD+Arduino,2013-04-25 19:31:00,
2013-04-25 12:36:00,69.8,42.1,30.07,SE,135,6.0,9.0,36,0.00,,,0.00,NetBSD+Arduino,2013-04-25 19:36:00,
2013-04-25 12:41:00,69.0,43.5,30.07,SE,135,4.5,7.5,39,0.00,,,0.00,NetBSD+Arduino,2013-04-25 19:41:00,
2013-04-25 12:46:00,69.8,45.0,30.07,South,180,4.5,7.5,40,0.00,,,0.00,NetBSD+Arduino,2013-04-25 19:46:00,
2013-04-25 12:51:00,71.1,43.0,30.07,South,180,4.5,6.0,36,0.00,,,0.00,NetBSD+Arduino,2013-04-25 19:51:00,
2013-04-25 12:56:00,70.6,41.3,30.07,East,90,1.5,7.5,34,0.00,,,0.00,NetBSD+Arduino,2013-04-25 19:56:00,
2013-04-25 13:01:00,71.3,42.0,30.07,NW,315,0.0,4.5,34,0.00,,,0.00,NetBSD+Arduino,2013-04-25 20:01:00,
2013-04-25 13:06:00,71.9,41.7,30.07,South,180,6.0,6.0,33,0.00,,,0.00,NetBSD+Arduino,2013-04-25 20:06:00,
2013-04-25 13:11:00,71.8,40.8,30.07,South,180,1.5,6.0,32,0.00,,,0.00,NetBSD+Arduino,2013-04-25 20:11:00,
2013-04-25 13:16:00,72.6,42.4,30.07,NE,45,0.0,3.0,33,0.00,,,0.00,NetBSD+Arduino,2013-04-25 20:16:00,
2013-04-25 13:21:00,72.1,43.5,30.07,South,180,1.5,4.5,35,0.00,,,0.00,NetBSD+Arduino,2013-04-25 20:21:00,
2013-04-25 13:26:00,72.7,41.2,30.07,West,270,0.0,4.5,32,0.00,,,0.00,NetBSD+Arduino,2013-04-25 20:26:00,
2013-04-25 13:31:00,72.9,43.8,30.07,North,0,1.5,4.5,35,0.00,,,0.00,NetBSD+Arduino,2013-04-25 20:31:00,
2013-04-25 13:36:00,73.4,42.3,30.07,East,90,1.5,6.0,32,0.00,,,0.00,NetBSD+Arduino,2013-04-25 20:36:00,
2013-04-25 13:41:00,72.4,42.2,30.07,SE,135,1.5,4.5,33,0.00,,,0.00,NetBSD+Arduino,2013-04-25 20:41:00,
2013-04-25 13:46:00,71.5,40.5,30.07,NW,315,3.0,4.5,32,0.00,,,0.00,NetBSD+Arduino,2013-04-25 20:46:00,
2013-04-25 13:51:00,72.4,43.7,30.07,West,270,1.5,6.0,35,0.00,,,0.00,NetBSD+Arduino,2013-04-25 20:51:00,
2013-04-25 13:56:00,72.9,41.8,30.07,West,270,1.5,4.5,32,0.00,,,0.00,NetBSD+Arduino,2013-04-25 20:56:00,
2013-04-25 14:01:00,72.9,42.6,30.07,South,180,1.5,3.0,33,0.00,,,0.00,NetBSD+Arduino,2013-04-25 21:01:00,
2013-04-25 14:06:00,74.3,42.2,30.07,North,0,4.5,4.5,31,0.00,,,0.00,NetBSD+Arduino,2013-04-25 21:06:00,
2013-04-25 14:11:00,74.1,42.0,30.07,West,270,1.5,4.5,31,0.00,,,0.00,NetBSD+Arduino,2013-04-25 21:11:00,
2013-04-25 14:16:00,72.5,41.4,30.07,East,90,0.0,6.0,32,0.00,,,0.00,NetBSD+Arduino,2013-04-25 21:16:00,
2013-04-25 14:21:00,73.0,42.7,30.07,NW,315,1.5,3.0,33,0.00,,,0.00,NetBSD+Arduino,2013-04-25 21:21:00,
2013-04-25 14:26:00,72.9,39.0,30.07,SW,225,0.0,4.5,29,0.00,,,0.00,NetBSD+Arduino,2013-04-25 21:26:00,
2013-04-25 14:31:00,73.0,41.0,30.07,East,90,1.5,4.5,31,0.00,,,0.00,NetBSD+Arduino,2013-04-25 21:31:00,
2013-04-25 14:36:00,74.0,41.9,30.07,South,180,0.0,6.0,31,0.00,,,0.00,NetBSD+Arduino,2013-04-25 21:36:00,
2013-04-25 14:41:00,74.1,41.1,30.07,SW,225,0.0,4.5,30,0.00,,,0.00,NetBSD+Arduino,2013-04-25 21:41:00,
2013-04-25 14:46:00,73.4,41.3,30.07,South,180,3.0,4.5,31,0.00,,,0.00,NetBSD+Arduino,2013-04-25 21:46:00,
2013-04-25 14:51:00,73.7,40.2,30.07,South,180,1.5,7.5,29,0.00,,,0.00,NetBSD+Arduino,2013-04-25 21:51:00,
2013-04-25 14:56:00,73.4,40.5,30.07,South,180,3.0,10.4,30,0.00,,,0.00,NetBSD+Arduino,2013-04-25 21:56:00,
2013-04-25 15:01:00,73.2,41.6,30.07,South,180,1.5,7.5,32,0.00,,,0.00,NetBSD+Arduino,2013-04-25 22:01:00,
2013-04-25 15:06:00,73.1,39.2,30.07,SW,225,3.0,7.5,29,0.00,,,0.00,NetBSD+Arduino,2013-04-25 22:06:00,
2013-04-25 15:11:00,72.9,40.0,30.07,West,270,0.0,4.5,30,0.00,,,0.00,NetBSD+Arduino,2013-04-25 22:11:00,
2013-04-25 15:16:00,72.9,42.2,30.07,West,270,3.0,6.0,33,0.00,,,0.00,NetBSD+Arduino,2013-04-25 22:16:00,
2013-04-25 15:21:00,72.3,40.3,30.07,South,180,7.5,7.5,31,0.00,,,0.00,NetBSD+Arduino,2013-04-25 22:21:00,
2013-04-25 15:26:00,72.5,41.4,30.07,NW,315,3.0,6.0,32,0.00,,,0.00,NetBSD+Arduino,2013-04-25 22:26:00,
2013-04-25 15:31:00,72.3,40.3,30.07,South,180,3.0,7.5,31,0.00,,,0.00,NetBSD+Arduino,2013-04-25 22:31:00,
2013-04-25 15:36:00,71.6,39.7,30.07,South,180,3.0,7.5,31,0.00,,,0.00,NetBSD+Arduino,2013-04-25 22:36:00,
2013-04-25 15:41:00,70.8,41.5,30.07,South,180,4.5,6.0,34,0.00,,,0.00,NetBSD+Arduino,2013-04-25 22:41:00,
2013-04-25 15:46:00,70.6,42.0,30.07,SW,225,3.0,9.0,35,0.00,,,0.00,NetBSD+Arduino,2013-04-25 22:46:00,
2013-04-25 15:51:00,70.1,40.5,30.07,East,90,1.5,9.0,34,0.00,,,0.00,NetBSD+Arduino,2013-04-25 22:51:00,
2013-04-25 15:56:00,69.9,41.4,30.07,NW,315,1.5,6.0,35,0.00,,,0.00,NetBSD+Arduino,2013-04-25 22:56:00,
2013-04-25 16:01:00,69.7,41.2,30.06,South,180,1.5,7.5,35,0.00,,,0.00,NetBSD+Arduino,2013-04-25 23:01:00,
2013-04-25 16:06:00,69.8,41.4,30.06,SW,225,3.0,6.0,35,0.00,,,0.00,NetBSD+Arduino,2013-04-25 23:06:00,
2013-04-25 16:11:00,69.8,42.1,30.06,East,90,3.0,9.0,36,0.00,,,0.00,NetBSD+Arduino,2013-04-25 23:11:00,
2013-04-25 16:16:00,69.8,41.4,30.06,SW,225,1.5,4.5,35,0.00,,,0.00,NetBSD+Arduino,2013-04-25 23:16:00,
2013-04-25 16:21:00,69.6,41.2,30.06,South,180,4.5,7.5,35,0.00,,,0.00,NetBSD+Arduino,2013-04-25 23:21:00,
2013-04-25 16:26:00,69.6,41.9,30.06,NW,315,1.5,6.0,36,0.00,,,0.00,NetBSD+Arduino,2013-04-25 23:26:00,
2013-04-25 16:31:00,69.3,42.7,30.06,SW,225,0.0,6.0,38,0.00,,,0.00,NetBSD+Arduino,2013-04-25 23:31:00,
2013-04-25 16:36:00,69.3,40.8,30.06,SW,225,6.0,10.4,35,0.00,,,0.00,NetBSD+Arduino,2013-04-25 23:36:00,
2013-04-25 16:41:00,69.6,41.5,30.06,SW,225,1.5,7.5,36,0.00,,,0.00,NetBSD+Arduino,2013-04-25 23:41:00,
2013-04-25 16:46:00,69.4,42.5,30.06,South,180,1.5,4.5,37,0.00,,,0.00,NetBSD+Arduino,2013-04-25 23:46:00,
2013-04-25 16:51:00,69.6,41.6,30.06,SE,135,1.5,6.0,36,0.00,,,0.00,NetBSD+Arduino,2013-04-25 23:51:00,
2013-04-25 16:56:00,69.1,41.5,30.06,SW,225,1.5,6.0,36,0.00,,,0.00,NetBSD+Arduino,2013-04-25 23:56:00,
2013-04-25 17:01:00,68.9,40.5,30.06,South,180,0.0,6.0,35,0.00,,,0.00,NetBSD+Arduino,2013-04-26 00:01:00,
2013-04-25 17:06:00,69.1,41.5,30.06,SW,225,0.0,4.5,36,0.00,,,0.00,NetBSD+Arduino,2013-04-26 00:06:00,
2013-04-25 17:11:00,69.0,41.4,30.06,SE,135,1.5,3.0,36,0.00,,,0.00,NetBSD+Arduino,2013-04-26 00:11:00,
2013-04-25 17:16:00,68.7,42.5,30.06,West,270,0.0,4.5,38,0.00,,,0.00,NetBSD+Arduino,2013-04-26 00:16:00,
2013-04-25 17:21:00,68.6,43.8,30.06,NW,315,1.5,4.5,40,0.00,,,0.00,NetBSD+Arduino,2013-04-26 00:21:00,
2013-04-25 17:26:00,68.4,42.9,30.06,NE,45,1.5,3.0,39,0.00,,,0.00,NetBSD+Arduino,2013-04-26 00:26:00,
2013-04-25 17:31:00,68.1,41.6,30.06,NE,45,1.5,4.5,38,0.00,,,0.00,NetBSD+Arduino,2013-04-26 00:31:00,
2013-04-25 17:36:00,68.1,42.0,30.06,South,180,1.5,6.0,38,0.00,,,0.00,NetBSD+Arduino,2013-04-26 00:36:00,
2013-04-25 17:42:00,68.1,41.6,30.06,West,270,0.0,6.0,38,0.00,,,0.00,NetBSD+Arduino,2013-04-26 00:42:00,
2013-04-25 17:47:00,68.2,41.4,30.06,South,180,3.0,4.5,37,0.00,,,0.00,NetBSD+Arduino,2013-04-26 00:47:00,
2013-04-25 17:52:00,68.0,42.2,30.06,South,180,3.0,4.5,39,0.00,,,0.00,NetBSD+Arduino,2013-04-26 00:52:00,
2013-04-25 17:57:00,68.0,40.8,30.06,South,180,0.0,3.0,37,0.00,,,0.00,NetBSD+Arduino,2013-04-26 00:57:00,
2013-04-25 18:02:00,68.0,42.2,30.06,South,180,0.0,1.5,39,0.00,,,0.00,NetBSD+Arduino,2013-04-26 01:02:00,
2013-04-25 18:07:00,68.0,41.1,30.06,North,0,0.0,3.0,37,0.00,,,0.00,NetBSD+Arduino,2013-04-26 01:07:00,
2013-04-25 18:12:00,68.0,41.1,30.06,SW,225,1.5,3.0,37,0.00,,,0.00,NetBSD+Arduino,2013-04-26 01:12:00,
2013-04-25 18:17:00,68.0,43.3,30.06,NW,315,0.0,3.0,40,0.00,,,0.00,NetBSD+Arduino,2013-04-26 01:17:00,
2013-04-25 18:22:00,67.7,42.6,30.06,NW,315,0.0,4.5,40,0.00,,,0.00,NetBSD+Arduino,2013-04-26 01:22:00,
2013-04-25 18:27:00,67.5,42.8,30.06,West,270,1.5,3.0,40,0.00,,,0.00,NetBSD+Arduino,2013-04-26 01:27:00,
2013-04-25 18:32:00,67.1,43.0,30.06,North,0,0.0,1.5,41,0.00,,,0.00,NetBSD+Arduino,2013-04-26 01:32:00,
2013-04-25 18:37:00,66.9,42.8,30.06,West,270,0.0,3.0,41,0.00,,,0.00,NetBSD+Arduino,2013-04-26 01:37:00,
2013-04-25 18:42:00,66.8,42.1,30.06,West,270,1.5,3.0,40,0.00,,,0.00,NetBSD+Arduino,2013-04-26 01:42:00,
2013-04-25 18:47:00,67.0,42.2,30.06,West,270,0.0,1.5,40,0.00,,,0.00,NetBSD+Arduino,2013-04-26 01:47:00,
2013-04-25 18:52:00,66.7,42.6,30.06,West,270,0.0,0.0,41,0.00,,,0.00,NetBSD+Arduino,2013-04-26 01:52:00,
2013-04-25 18:57:00,66.8,42.1,30.06,West,270,0.0,0.0,40,0.00,,,0.00,NetBSD+Arduino,2013-04-26 01:57:00,
2013-04-25 19:02:00,66.5,41.8,30.06,South,180,0.0,3.0,40,0.00,,,0.00,NetBSD+Arduino,2013-04-26 02:02:00,
2013-04-25 19:07:00,66.5,41.5,30.06,East,90,0.0,3.0,40,0.00,,,0.00,NetBSD+Arduino,2013-04-26 02:07:00,
2013-04-25 19:12:00,66.4,42.4,30.06,West,270,0.0,3.0,41,0.00,,,0.00,NetBSD+Arduino,2013-04-26 02:12:00,
2013-04-25 19:17:00,66.3,42.3,30.06,SW,225,1.5,3.0,41,0.00,,,0.00,NetBSD+Arduino,2013-04-26 02:17:00,
2013-04-25 19:22:00,66.2,42.2,30.06,NW,315,0.0,3.0,41,0.00,,,0.00,NetBSD+Arduino,2013-04-26 02:22:00,
2013-04-25 19:27:00,66.2,43.1,30.06,West,270,0.0,1.5,43,0.00,,,0.00,NetBSD+Arduino,2013-04-26 02:27:00,
2013-04-25 19:32:00,65.7,43.5,30.07,SW,225,0.0,0.0,44,0.00,,,0.00,NetBSD+Arduino,2013-04-26 02:32:00,
2013-04-25 19:37:00,65.1,44.2,30.06,West,270,0.0,1.5,46,0.00,,,0.00,NetBSD+Arduino,2013-04-26 02:37:00,
2013-04-25 19:42:00,64.6,43.7,30.06,SW,225,1.5,1.5,46,0.00,,,0.00,NetBSD+Arduino,2013-04-26 02:42:00,
2013-04-25 19:47:00,64.2,43.6,30.07,NW,315,0.0,1.5,47,0.00,,,0.00,NetBSD+Arduino,2013-04-26 02:47:00,
2013-04-25 19:52:00,63.9,44.1,30.07,West,270,0.0,1.5,48,0.00,,,0.00,NetBSD+Arduino,2013-04-26 02:52:00,
2013-04-25 19:57:00,63.4,43.9,30.07,North,0,0.0,3.0,49,0.00,,,0.00,NetBSD+Arduino,2013-04-26 02:57:00,
2013-04-25 20:02:00,62.9,43.5,30.07,NW,315,1.5,3.0,49,0.00,,,0.00,NetBSD+Arduino,2013-04-26 03:02:00,
2013-04-25 20:07:00,62.4,42.7,30.07,NE,45,0.0,3.0,48,0.00,,,0.00,NetBSD+Arduino,2013-04-26 03:07:00,
2013-04-25 20:12:00,62.0,42.6,30.07,West,270,1.5,3.0,48,0.00,,,0.00,NetBSD+Arduino,2013-04-26 03:12:00,
2013-04-25 20:17:00,61.5,42.6,30.07,NW,315,1.5,3.0,49,0.00,,,0.00,NetBSD+Arduino,2013-04-26 03:17:00,
2013-04-25 20:22:00,61.1,42.8,30.07,SW,225,0.0,3.0,50,0.00,,,0.00,NetBSD+Arduino,2013-04-26 03:22:00,
2013-04-25 20:28:00,60.6,43.3,30.07,West,270,3.0,3.0,52,0.00,,,0.00,NetBSD+Arduino,2013-04-26 03:28:00,
2013-04-25 20:33:00,60.3,44.0,30.08,NW,315,1.5,3.0,54,0.00,,,0.00,NetBSD+Arduino,2013-04-26 03:33:00,
2013-04-25 20:38:00,60.0,43.8,30.09,West,270,1.5,4.5,55,0.00,,,0.00,NetBSD+Arduino,2013-04-26 03:38:00,
2013-04-25 20:43:00,59.8,44.4,30.09,NW,315,1.5,3.0,56,0.00,,,0.00,NetBSD+Arduino,2013-04-26 03:43:00,
2013-04-25 20:48:00,59.5,44.5,30.09,West,270,0.0,3.0,57,0.00,,,0.00,NetBSD+Arduino,2013-04-26 03:48:00,
2013-04-25 20:53:00,59.2,45.1,30.10,NW,315,3.0,4.5,59,0.00,,,0.00,NetBSD+Arduino,2013-04-26 03:53:00,
2013-04-25 20:58:00,58.9,45.6,30.10,West,270,1.5,4.5,61,0.00,,,0.00,NetBSD+Arduino,2013-04-26 03:58:00,
2013-04-25 21:01:00,58.6,45.7,30.10,NW,315,1.5,3.0,62,0.00,,,0.00,NetBSD+Arduino,2013-04-26 04:01:00,
2013-04-25 21:02:00,58.6,46.1,30.10,West,270,3.0,3.0,63,0.00,,,0.00,NetBSD+Arduino,2013-04-26 04:02:00,
2013-04-25 21:05:00,58.4,46.1,30.10,South,180,0.0,3.0,63,0.00,,,0.00,NetBSD+Arduino,2013-04-26 04:05:00,
2013-04-25 21:06:00,58.3,46.2,30.10,West,270,0.0,3.0,64,0.00,,,0.00,NetBSD+Arduino,2013-04-26 04:06:00,
2013-04-25 21:11:00,57.9,46.2,30.10,West,270,1.5,3.0,65,0.00,,,0.00,NetBSD+Arduino,2013-04-26 04:11:00,
2013-04-25 21:16:00,57.4,46.1,30.10,NW,315,0.0,3.0,65,0.00,,,0.00,NetBSD+Arduino,2013-04-26 04:16:00,
2013-04-25 21:21:00,57.0,46.3,30.10,West,270,1.5,3.0,67,0.00,,,0.00,NetBSD+Arduino,2013-04-26 04:21:00,
2013-04-25 21:26:00,56.7,46.3,30.10,West,270,0.0,3.0,68,0.00,,,0.00,NetBSD+Arduino,2013-04-26 04:26:00,
2013-04-25 21:31:00,56.5,46.5,30.10,West,270,0.0,3.0,69,0.00,,,0.00,NetBSD+Arduino,2013-04-26 04:31:00,
2013-04-25 21:36:00,56.4,46.3,30.10,NW,315,1.5,3.0,69,0.00,,,0.00,NetBSD+Arduino,2013-04-26 04:36:00,
2013-04-25 21:41:00,56.2,46.2,30.10,West,270,0.0,1.5,69,0.00,,,0.00,NetBSD+Arduino,2013-04-26 04:41:00,
2013-04-25 21:46:00,56.0,46.3,30.11,NW,315,1.5,1.5,69,0.00,,,0.00,NetBSD+Arduino,2013-04-26 04:46:00,
2013-04-25 21:51:00,55.9,46.2,30.11,NW,315,0.0,1.5,69,0.00,,,0.00,NetBSD+Arduino,2013-04-26 04:51:00,
2013-04-25 21:56:00,56.1,46.2,30.11,West,270,0.0,3.0,69,0.00,,,0.00,NetBSD+Arduino,2013-04-26 04:56:00,
2013-04-25 22:01:00,56.2,45.8,30.11,North,0,3.0,3.0,68,0.00,,,0.00,NetBSD+Arduino,2013-04-26 05:01:00,
2013-04-25 22:06:00,56.2,46.0,30.12,South,180,1.5,4.5,68,0.00,,,0.00,NetBSD+Arduino,2013-04-26 05:06:00,
2013-04-25 22:11:00,56.2,46.0,30.12,SW,225,1.5,3.0,68,0.00,,,0.00,NetBSD+Arduino,2013-04-26 05:11:00,
2013-04-25 22:17:00,55.9,46.0,30.12,West,270,0.0,1.5,69,0.00,,,0.00,NetBSD+Arduino,2013-04-26 05:17:00,
2013-04-25 22:22:00,55.4,46.1,30.12,West,270,0.0,1.5,70,0.00,,,0.00,NetBSD+Arduino,2013-04-26 05:22:00,
2013-04-25 22:27:00,55.2,46.0,30.12,West,270,0.0,1.5,71,0.00,,,0.00,NetBSD+Arduino,2013-04-26 05:27:00,
2013-04-25 22:32:00,54.9,46.0,30.13,West,270,0.0,1.5,72,0.00,,,0.00,NetBSD+Arduino,2013-04-26 05:32:00,
2013-04-25 22:38:00,54.5,46.2,30.12,NW,315,0.0,3.0,73,0.00,,,0.00,NetBSD+Arduino,2013-04-26 05:38:00,
2013-04-25 22:43:00,54.2,46.0,30.13,West,270,0.0,1.5,73,0.00,,,0.00,NetBSD+Arduino,2013-04-26 05:43:00,
2013-04-25 22:48:00,54.0,46.0,30.12,West,270,0.0,0.0,74,0.00,,,0.00,NetBSD+Arduino,2013-04-26 05:48:00,
2013-04-25 22:53:00,53.7,46.2,30.12,West,270,0.0,1.5,75,0.00,,,0.00,NetBSD+Arduino,2013-04-26 05:53:00,
2013-04-25 22:58:00,53.6,46.2,30.13,SW,225,0.0,1.5,76,0.00,,,0.00,NetBSD+Arduino,2013-04-26 05:58:00,
2013-04-25 23:03:00,53.5,46.3,30.13,West,270,0.0,1.5,76,0.00,,,0.00,NetBSD+Arduino,2013-04-26 06:03:00,
2013-04-25 23:08:00,53.5,46.6,30.13,SW,225,0.0,1.5,77,0.00,,,0.00,NetBSD+Arduino,2013-04-26 06:08:00,
2013-04-25 23:13:00,53.2,46.3,30.13,West,270,0.0,1.5,77,0.00,,,0.00,NetBSD+Arduino,2013-04-26 06:13:00,
2013-04-25 23:18:00,53.1,46.4,30.13,West,270,0.0,1.5,78,0.00,,,0.00,NetBSD+Arduino,2013-04-26 06:18:00,
2013-04-25 23:23:00,52.8,46.4,30.13,West,270,1.5,3.0,78,0.00,,,0.00,NetBSD+Arduino,2013-04-26 06:23:00,
2013-04-25 23:28:00,52.8,46.7,30.14,West,270,0.0,3.0,79,0.00,,,0.00,NetBSD+Arduino,2013-04-26 06:28:00,
2013-04-25 23:33:00,52.8,46.9,30.13,NW,315,0.0,1.5,80,0.00,,,0.00,NetBSD+Arduino,2013-04-26 06:33:00,
2013-04-25 23:38:00,52.6,47.0,30.13,West,270,1.5,1.5,81,0.00,,,0.00,NetBSD+Arduino,2013-04-26 06:38:00,
2013-04-25 23:43:00,52.5,47.3,30.13,West,270,0.0,3.0,82,0.00,,,0.00,NetBSD+Arduino,2013-04-26 06:43:00,
2013-04-25 23:48:00,52.3,47.3,30.13,West,270,1.5,3.0,83,0.00,,,0.00,NetBSD+Arduino,2013-04-26 06:48:00,
2013-04-25 23:53:00,52.1,47.2,30.14,SW,225,0.0,3.0,83,0.00,,,0.00,NetBSD+Arduino,2013-04-26 06:53:00,
2013-04-25 23:58:00,52.0,47.1,30.14,West,270,1.5,1.5,83,0.00,,,0.00,NetBSD+Arduino,2013-04-26 06:58:00,